KBLH/BLH METAR and TAF weather

Enter ICAO airport designator
Station Type Date Time Source
KBLH METAR 2018/04/27 00:52 UTC NOAA

KBLH 270052Z AUTO 24014KT 10SM CLR 37/01 A2973 RMK AO2 SLP061 T03720006


Station Type Date Time Source
KBLH Decoded METAR 2018/04/27 00:52 UTC NOAA

BLYTHE AIRPORT, CA, United States (KBLH) 33-37N 114-43W 119M
Apr 26, 2018 - 08:52 PM EDT / 2018.04.27 0052 UTC
Wind: from the WSW (240 degrees) at 16 MPH (14 KT):0
Visibility: 10 mile(s):0
Sky conditions: clear
Temperature: 99.0 F (37.2 C)
Dew Point: 33.1 F (0.6 C)
Relative Humidity: 10%
Pressure (altimeter): 29.73 in. Hg (1006 hPa)
ob: KBLH 270052Z AUTO 24014KT 10SM CLR 37/01 A2973 RMK AO2 SLP061 T03720006
cycle: 1

Station Type Date Time Source
KBLH TAF 2018/04/26 18:22 UTC NOAA

TAF KBLH 261720Z 2618/2718 19010KT P6SM SCT250


Example: see airport list